sensor_id;sensor_type;location;lat;lon;timestamp;temperature;humidity
21502;DHT22;27639;48.674;9.242;2023-04-24T00:01:13;15.50;55.70
21502;DHT22;27639;48.674;9.242;2023-04-24T00:03:40;15.50;55.80
21502;DHT22;27639;48.674;9.242;2023-04-24T00:06:06;15.40;55.90
21502;DHT22;27639;48.674;9.242;2023-04-24T00:08:36;15.40;55.80
21502;DHT22;27639;48.674;9.242;2023-04-24T00:11:01;15.40;55.70
21502;DHT22;27639;48.674;9.242;2023-04-24T00:13:27;15.40;55.60
21502;DHT22;27639;48.674;9.242;2023-04-24T00:15:54;15.40;55.70
21502;DHT22;27639;48.674;9.242;2023-04-24T00:18:20;15.40;55.90
21502;DHT22;27639;48.674;9.242;2023-04-24T00:20:46;15.40;55.90
21502;DHT22;27639;48.674;9.242;2023-04-24T00:23:12;15.40;55.80
21502;DHT22;27639;48.674;9.242;2023-04-24T00:25:37;15.30;55.70
21502;DHT22;27639;48.674;9.242;2023-04-24T00:28:03;15.30;55.70
21502;DHT22;27639;48.674;9.242;2023-04-24T00:30:29;15.30;55.60
21502;DHT22;27639;48.674;9.242;2023-04-24T00:32:54;15.30;55.60
21502;DHT22;27639;48.674;9.242;2023-04-24T00:35:20;15.30;55.60
21502;DHT22;27639;48.674;9.242;2023-04-24T00:37:45;15.30;55.70
21502;DHT22;27639;48.674;9.242;2023-04-24T00:40:11;15.30;55.70
21502;DHT22;27639;48.674;9.242;2023-04-24T00:42:37;15.20;55.60
21502;DHT22;27639;48.674;9.242;2023-04-24T00:45:04;15.20;55.70
21502;DHT22;27639;48.674;9.242;2023-04-24T00:47:30;15.20;55.70
21502;DHT22;27639;48.674;9.242;2023-04-24T00:49:57;15.20;55.70
21502;DHT22;27639;48.674;9.242;2023-04-24T00:52:23;15.20;55.80
21502;DHT22;27639;48.674;9.242;2023-04-24T00:54:49;15.10;55.80
21502;DHT22;27639;48.674;9.242;2023-04-24T00:57:15;15.20;55.90
21502;DHT22;27639;48.674;9.242;2023-04-24T00:59:42;15.20;56.00
21502;DHT22;27639;48.674;9.242;2023-04-24T01:02:09;15.20;56.00
21502;DHT22;27639;48.674;9.242;2023-04-24T01:04:36;15.20;55.90
21502;DHT22;27639;48.674;9.242;2023-04-24T01:07:02;15.10;55.70
21502;DHT22;27639;48.674;9.242;2023-04-24T01:09:28;15.10;55.70
21502;DHT22;27639;48.674;9.242;2023-04-24T01:11:54;15.20;55.90
21502;DHT22;27639;48.674;9.242;2023-04-24T01:14:20;15.20;55.70
21502;DHT22;27639;48.674;9.242;2023-04-24T01:16:46;15.20;55.60
21502;DHT22;27639;48.674;9.242;2023-04-24T01:19:12;15.20;55.60
21502;DHT22;27639;48.674;9.242;2023-04-24T01:21:42;15.20;55.60
21502;DHT22;27639;48.674;9.242;2023-04-24T01:24:08;15.30;55.70
21502;DHT22;27639;48.674;9.242;2023-04-24T01:26:34;15.20;55.50
21502;DHT22;27639;48.674;9.242;2023-04-24T01:29:00;15.30;55.60
21502;DHT22;27639;48.674;9.242;2023-04-24T01:31:26;15.20;55.50
21502;DHT22;27639;48.674;9.242;2023-04-24T01:33:51;15.30;55.60
21502;DHT22;27639;48.674;9.242;2023-04-24T01:36:18;15.30;55.60
21502;DHT22;27639;48.674;9.242;2023-04-24T01:38:44;15.30;55.40
21502;DHT22;27639;48.674;9.242;2023-04-24T01:41:10;15.30;55.40
21502;DHT22;27639;48.674;9.242;2023-04-24T01:43:36;15.30;55.40
21502;DHT22;27639;48.674;9.242;2023-04-24T01:46:01;15.40;55.50
21502;DHT22;27639;48.674;9.242;2023-04-24T01:48:27;15.40;55.40
21502;DHT22;27639;48.674;9.242;2023-04-24T01:50:53;15.40;55.40
21502;DHT22;27639;48.674;9.242;2023-04-24T01:53:19;15.40;55.30
21502;DHT22;27639;48.674;9.242;2023-04-24T01:55:45;15.40;55.10
21502;DHT22;27639;48.674;9.242;2023-04-24T01:58:11;15.40;55.10
21502;DHT22;27639;48.674;9.242;2023-04-24T02:00:36;15.40;55.00
21502;DHT22;27639;48.674;9.242;2023-04-24T02:03:02;15.40;55.10
21502;DHT22;27639;48.674;9.242;2023-04-24T02:05:28;15.40;54.90
21502;DHT22;27639;48.674;9.242;2023-04-24T02:07:53;15.40;55.00
21502;DHT22;27639;48.674;9.242;2023-04-24T02:10:19;15.40;55.20
21502;DHT22;27639;48.674;9.242;2023-04-24T02:12:45;15.30;55.20
21502;DHT22;27639;48.674;9.242;2023-04-24T02:15:11;15.30;55.30
21502;DHT22;27639;48.674;9.242;2023-04-24T02:17:37;15.30;55.50
21502;DHT22;27639;48.674;9.242;2023-04-24T02:20:04;15.20;55.70
21502;DHT22;27639;48.674;9.242;2023-04-24T02:22:30;15.20;55.90
21502;DHT22;27639;48.674;9.242;2023-04-24T02:24:55;15.10;55.90
21502;DHT22;27639;48.674;9.242;2023-04-24T02:27:21;15.00;56.10
21502;DHT22;27639;48.674;9.242;2023-04-24T02:29:47;15.00;56.20
21502;DHT22;27639;48.674;9.242;2023-04-24T02:32:12;15.00;56.20
21502;DHT22;27639;48.674;9.242;2023-04-24T02:34:40;15.00;56.20
21502;DHT22;27639;48.674;9.242;2023-04-24T02:37:06;14.90;56.30
21502;DHT22;27639;48.674;9.242;2023-04-24T02:39:31;15.00;56.40
21502;DHT22;27639;48.674;9.242;2023-04-24T02:41:57;14.90;56.40
21502;DHT22;27639;48.674;9.242;2023-04-24T02:44:23;14.80;56.50
21502;DHT22;27639;48.674;9.242;2023-04-24T02:46:48;14.80;56.60
21502;DHT22;27639;48.674;9.242;2023-04-24T02:49:14;14.80;56.60
21502;DHT22;27639;48.674;9.242;2023-04-24T02:51:40;14.80;56.70
21502;DHT22;27639;48.674;9.242;2023-04-24T02:54:07;14.90;56.80
21502;DHT22;27639;48.674;9.242;2023-04-24T02:56:34;14.80;56.80
21502;DHT22;27639;48.674;9.242;2023-04-24T02:58:59;14.80;56.80
21502;DHT22;27639;48.674;9.242;2023-04-24T03:01:25;14.80;56.90
21502;DHT22;27639;48.674;9.242;2023-04-24T03:03:51;14.80;56.90
21502;DHT22;27639;48.674;9.242;2023-04-24T03:06:16;14.80;57.00
21502;DHT22;27639;48.674;9.242;2023-04-24T03:08:43;14.80;57.10
21502;DHT22;27639;48.674;9.242;2023-04-24T03:11:09;14.80;57.10
21502;DHT22;27639;48.674;9.242;2023-04-24T03:13:34;14.80;57.10
21502;DHT22;27639;48.674;9.242;2023-04-24T03:16:00;14.80;57.30
21502;DHT22;27639;48.674;9.242;2023-04-24T03:18:26;14.80;57.50
21502;DHT22;27639;48.674;9.242;2023-04-24T03:20:51;14.70;57.50
21502;DHT22;27639;48.674;9.242;2023-04-24T03:23:17;14.70;57.60
21502;DHT22;27639;48.674;9.242;2023-04-24T03:25:42;14.70;57.70
21502;DHT22;27639;48.674;9.242;2023-04-24T03:28:08;14.70;57.70
21502;DHT22;27639;48.674;9.242;2023-04-24T03:30:34;14.70;57.70
21502;DHT22;27639;48.674;9.242;2023-04-24T03:33:00;14.70;57.70
21502;DHT22;27639;48.674;9.242;2023-04-24T03:35:26;14.70;57.80
21502;DHT22;27639;48.674;9.242;2023-04-24T03:37:51;14.70;57.90
21502;DHT22;27639;48.674;9.242;2023-04-24T03:40:17;14.60;57.90
21502;DHT22;27639;48.674;9.242;2023-04-24T03:42:42;14.60;58.00
21502;DHT22;27639;48.674;9.242;2023-04-24T03:45:08;14.60;58.00
21502;DHT22;27639;48.674;9.242;2023-04-24T03:47:34;14.60;58.10
21502;DHT22;27639;48.674;9.242;2023-04-24T03:50:00;14.60;58.10
21502;DHT22;27639;48.674;9.242;2023-04-24T03:52:25;14.60;58.10
21502;DHT22;27639;48.674;9.242;2023-04-24T03:54:51;14.60;58.40
21502;DHT22;27639;48.674;9.242;2023-04-24T03:57:16;14.50;58.50
21502;DHT22;27639;48.674;9.242;2023-04-24T03:59:42;14.50;58.40
21502;DHT22;27639;48.674;9.242;2023-04-24T04:02:07;14.50;58.40
21502;DHT22;27639;48.674;9.242;2023-04-24T04:04:33;14.50;58.40
21502;DHT22;27639;48.674;9.242;2023-04-24T04:06:59;14.50;58.60
21502;DHT22;27639;48.674;9.242;2023-04-24T04:09:26;14.40;58.50
21502;DHT22;27639;48.674;9.242;2023-04-24T04:11:52;14.40;58.60
21502;DHT22;27639;48.674;9.242;2023-04-24T04:14:17;14.40;58.60
21502;DHT22;27639;48.674;9.242;2023-04-24T04:16:43;14.40;58.90
21502;DHT22;27639;48.674;9.242;2023-04-24T04:19:09;14.30;58.90
21502;DHT22;27639;48.674;9.242;2023-04-24T04:21:34;14.20;59.10
21502;DHT22;27639;48.674;9.242;2023-04-24T04:24:00;14.20;59.10
21502;DHT22;27639;48.674;9.242;2023-04-24T04:26:25;14.20;59.10
21502;DHT22;27639;48.674;9.242;2023-04-24T04:28:52;14.20;59.00
21502;DHT22;27639;48.674;9.242;2023-04-24T04:31:19;14.20;59.00
21502;DHT22;27639;48.674;9.242;2023-04-24T04:33:45;14.30;59.10
21502;DHT22;27639;48.674;9.242;2023-04-24T04:36:10;14.30;59.00
21502;DHT22;27639;48.674;9.242;2023-04-24T04:38:36;14.20;59.10
21502;DHT22;27639;48.674;9.242;2023-04-24T04:41:02;14.20;59.10
21502;DHT22;27639;48.674;9.242;2023-04-24T04:43:28;14.30;59.20
21502;DHT22;27639;48.674;9.242;2023-04-24T04:45:53;14.30;59.20
21502;DHT22;27639;48.674;9.242;2023-04-24T04:48:21;14.30;59.30
21502;DHT22;27639;48.674;9.242;2023-04-24T04:50:47;14.20;59.30
21502;DHT22;27639;48.674;9.242;2023-04-24T04:53:13;14.10;59.00
21502;DHT22;27639;48.674;9.242;2023-04-24T04:55:38;13.90;59.20
21502;DHT22;27639;48.674;9.242;2023-04-24T04:58:04;13.70;59.10
21502;DHT22;27639;48.674;9.242;2023-04-24T05:00:29;13.60;59.20
21502;DHT22;27639;48.674;9.242;2023-04-24T05:03:01;13.60;59.10
21502;DHT22;27639;48.674;9.242;2023-04-24T05:05:26;13.60;59.20
21502;DHT22;27639;48.674;9.242;2023-04-24T05:07:52;13.60;59.20
21502;DHT22;27639;48.674;9.242;2023-04-24T05:10:17;13.60;59.20
21502;DHT22;27639;48.674;9.242;2023-04-24T05:12:43;13.60;59.30
21502;DHT22;27639;48.674;9.242;2023-04-24T05:15:09;13.60;59.30
21502;DHT22;27639;48.674;9.242;2023-04-24T05:17:35;13.60;59.30
21502;DHT22;27639;48.674;9.242;2023-04-24T05:20:01;13.60;59.30
21502;DHT22;27639;48.674;9.242;2023-04-24T05:22:28;13.60;59.40
21502;DHT22;27639;48.674;9.242;2023-04-24T05:24:53;13.60;59.30
21502;DHT22;27639;48.674;9.242;2023-04-24T05:27:19;13.50;59.30
21502;DHT22;27639;48.674;9.242;2023-04-24T05:29:45;13.60;59.40
21502;DHT22;27639;48.674;9.242;2023-04-24T05:32:10;13.60;59.40
21502;DHT22;27639;48.674;9.242;2023-04-24T05:34:37;13.60;59.30
21502;DHT22;27639;48.674;9.242;2023-04-24T05:37:02;13.60;59.30
21502;DHT22;27639;48.674;9.242;2023-04-24T05:39:28;13.60;59.30
21502;DHT22;27639;48.674;9.242;2023-04-24T05:41:54;13.60;59.30
21502;DHT22;27639;48.674;9.242;2023-04-24T05:44:23;13.60;59.30
21502;DHT22;27639;48.674;9.242;2023-04-24T05:46:48;13.60;59.20
21502;DHT22;27639;48.674;9.242;2023-04-24T05:49:14;13.60;59.20
21502;DHT22;27639;48.674;9.242;2023-04-24T05:51:39;13.60;59.30
21502;DHT22;27639;48.674;9.242;2023-04-24T05:54:05;13.60;59.30
21502;DHT22;27639;48.674;9.242;2023-04-24T05:56:31;13.60;59.50
21502;DHT22;27639;48.674;9.242;2023-04-24T05:58:56;13.60;59.30
21502;DHT22;27639;48.674;9.242;2023-04-24T06:01:22;13.50;59.30
21502;DHT22;27639;48.674;9.242;2023-04-24T06:03:48;13.50;59.40
21502;DHT22;27639;48.674;9.242;2023-04-24T06:06:13;13.50;59.40
21502;DHT22;27639;48.674;9.242;2023-04-24T06:08:39;13.50;59.50
21502;DHT22;27639;48.674;9.242;2023-04-24T06:11:05;13.60;59.60
21502;DHT22;27639;48.674;9.242;2023-04-24T06:13:30;13.60;59.60
21502;DHT22;27639;48.674;9.242;2023-04-24T06:15:56;13.60;59.60
21502;DHT22;27639;48.674;9.242;2023-04-24T06:18:21;13.70;59.80
21502;DHT22;27639;48.674;9.242;2023-04-24T06:20:47;13.80;60.00
21502;DHT22;27639;48.674;9.242;2023-04-24T06:23:13;13.90;60.00
21502;DHT22;27639;48.674;9.242;2023-04-24T06:25:38;14.00;60.00
21502;DHT22;27639;48.674;9.242;2023-04-24T06:28:04;14.10;60.10
21502;DHT22;27639;48.674;9.242;2023-04-24T06:30:30;14.20;59.70
21502;DHT22;27639;48.674;9.242;2023-04-24T06:32:56;14.30;60.00
21502;DHT22;27639;48.674;9.242;2023-04-24T06:35:22;14.50;61.50
21502;DHT22;27639;48.674;9.242;2023-04-24T06:37:47;14.70;61.60
21502;DHT22;27639;48.674;9.242;2023-04-24T06:40:13;15.00;61.30
21502;DHT22;27639;48.674;9.242;2023-04-24T06:42:38;15.40;61.50
21502;DHT22;27639;48.674;9.242;2023-04-24T06:45:04;15.80;60.50
21502;DHT22;27639;48.674;9.242;2023-04-24T06:47:30;16.00;59.10
21502;DHT22;27639;48.674;9.242;2023-04-24T06:49:56;16.30;58.90
21502;DHT22;27639;48.674;9.242;2023-04-24T06:52:22;16.50;58.00
21502;DHT22;27639;48.674;9.242;2023-04-24T06:54:48;16.70;57.60
21502;DHT22;27639;48.674;9.242;2023-04-24T06:57:13;16.90;57.60
21502;DHT22;27639;48.674;9.242;2023-04-24T06:59:39;17.00;57.30
21502;DHT22;27639;48.674;9.242;2023-04-24T07:02:04;17.20;56.50
21502;DHT22;27639;48.674;9.242;2023-04-24T07:04:30;17.30;56.40
21502;DHT22;27639;48.674;9.242;2023-04-24T07:06:56;17.40;56.20
21502;DHT22;27639;48.674;9.242;2023-04-24T07:09:24;17.40;56.10
21502;DHT22;27639;48.674;9.242;2023-04-24T07:11:51;17.40;55.10
21502;DHT22;27639;48.674;9.242;2023-04-24T07:14:17;17.40;54.70
21502;DHT22;27639;48.674;9.242;2023-04-24T07:16:43;17.40;54.80
21502;DHT22;27639;48.674;9.242;2023-04-24T07:19:09;17.20;53.90
21502;DHT22;27639;48.674;9.242;2023-04-24T07:21:35;17.10;53.80
21502;DHT22;27639;48.674;9.242;2023-04-24T07:24:02;17.00;53.60
21502;DHT22;27639;48.674;9.242;2023-04-24T07:26:30;16.90;53.70
21502;DHT22;27639;48.674;9.242;2023-04-24T07:28:56;16.70;53.70
21502;DHT22;27639;48.674;9.242;2023-04-24T07:31:22;16.60;53.90
21502;DHT22;27639;48.674;9.242;2023-04-24T07:33:48;16.40;53.80
21502;DHT22;27639;48.674;9.242;2023-04-24T07:36:14;16.30;54.20
21502;DHT22;27639;48.674;9.242;2023-04-24T07:38:45;16.10;54.90
21502;DHT22;27639;48.674;9.242;2023-04-24T07:41:10;15.90;54.20
21502;DHT22;27639;48.674;9.242;2023-04-24T07:43:36;15.70;54.20
21502;DHT22;27639;48.674;9.242;2023-04-24T07:46:01;15.60;54.60
21502;DHT22;27639;48.674;9.242;2023-04-24T07:48:27;15.50;54.70
21502;DHT22;27639;48.674;9.242;2023-04-24T07:50:53;15.50;55.50
21502;DHT22;27639;48.674;9.242;2023-04-24T07:53:19;15.50;55.90
21502;DHT22;27639;48.674;9.242;2023-04-24T07:55:44;15.70;56.30
21502;DHT22;27639;48.674;9.242;2023-04-24T07:58:10;15.90;56.60
21502;DHT22;27639;48.674;9.242;2023-04-24T08:00:36;16.00;55.50
21502;DHT22;27639;48.674;9.242;2023-04-24T08:03:01;16.10;54.60
21502;DHT22;27639;48.674;9.242;2023-04-24T08:05:27;16.30;54.50
21502;DHT22;27639;48.674;9.242;2023-04-24T08:07:54;16.50;54.50
21502;DHT22;27639;48.674;9.242;2023-04-24T08:10:21;16.70;54.40
21502;DHT22;27639;48.674;9.242;2023-04-24T08:12:47;16.80;53.30
21502;DHT22;27639;48.674;9.242;2023-04-24T08:15:13;16.80;51.90
21502;DHT22;27639;48.674;9.242;2023-04-24T08:17:38;16.80;52.00
21502;DHT22;27639;48.674;9.242;2023-04-24T08:20:05;16.90;51.80
21502;DHT22;27639;48.674;9.242;2023-04-24T08:22:31;16.90;51.30
21502;DHT22;27639;48.674;9.242;2023-04-24T08:24:59;16.80;50.70
21502;DHT22;27639;48.674;9.242;2023-04-24T08:27:26;16.80;50.40
21502;DHT22;27639;48.674;9.242;2023-04-24T08:29:53;16.70;49.50
21502;DHT22;27639;48.674;9.242;2023-04-24T08:32:19;16.60;49.10
21502;DHT22;27639;48.674;9.242;2023-04-24T08:34:44;16.50;49.20
21502;DHT22;27639;48.674;9.242;2023-04-24T08:37:10;16.20;48.70
21502;DHT22;27639;48.674;9.242;2023-04-24T08:39:36;16.20;49.10
21502;DHT22;27639;48.674;9.242;2023-04-24T08:42:02;16.00;48.90
21502;DHT22;27639;48.674;9.242;2023-04-24T08:44:32;15.90;48.90
21502;DHT22;27639;48.674;9.242;2023-04-24T08:46:58;15.90;49.20
21502;DHT22;27639;48.674;9.242;2023-04-24T08:49:24;15.90;49.90
21502;DHT22;27639;48.674;9.242;2023-04-24T08:51:52;16.10;50.30
21502;DHT22;27639;48.674;9.242;2023-04-24T08:54:18;16.30;50.00
21502;DHT22;27639;48.674;9.242;2023-04-24T08:56:44;16.40;49.80
21502;DHT22;27639;48.674;9.242;2023-04-24T08:59:10;16.40;48.50
21502;DHT22;27639;48.674;9.242;2023-04-24T09:01:37;16.40;48.00
21502;DHT22;27639;48.674;9.242;2023-04-24T09:04:03;16.40;47.60
21502;DHT22;27639;48.674;9.242;2023-04-24T09:06:30;16.40;47.20
21502;DHT22;27639;48.674;9.242;2023-04-24T09:08:59;16.40;47.00
21502;DHT22;27639;48.674;9.242;2023-04-24T09:11:26;16.40;47.10
21502;DHT22;27639;48.674;9.242;2023-04-24T09:13:53;16.30;47.00
21502;DHT22;27639;48.674;9.242;2023-04-24T09:16:19;16.20;46.80
21502;DHT22;27639;48.674;9.242;2023-04-24T09:18:45;16.20;47.10
21502;DHT22;27639;48.674;9.242;2023-04-24T09:21:10;16.30;47.00
21502;DHT22;27639;48.674;9.242;2023-04-24T09:23:36;16.50;47.90
21502;DHT22;27639;48.674;9.242;2023-04-24T09:26:03;16.70;47.40
21502;DHT22;27639;48.674;9.242;2023-04-24T09:28:36;16.80;47.20
21502;DHT22;27639;48.674;9.242;2023-04-24T09:31:22;16.90;45.60
21502;DHT22;27639;48.674;9.242;2023-04-24T09:34:01;16.90;45.30
21502;DHT22;27639;48.674;9.242;2023-04-24T09:36:31;16.90;44.60
21502;DHT22;27639;48.674;9.242;2023-04-24T09:39:01;17.00;44.40
21502;DHT22;27639;48.674;9.242;2023-04-24T09:41:27;17.10;44.60
21502;DHT22;27639;48.674;9.242;2023-04-24T09:43:56;17.30;43.80
21502;DHT22;27639;48.674;9.242;2023-04-24T09:46:30;17.50;43.80
21502;DHT22;27639;48.674;9.242;2023-04-24T09:48:57;17.50;43.10
21502;DHT22;27639;48.674;9.242;2023-04-24T09:51:35;17.70;43.70
21502;DHT22;27639;48.674;9.242;2023-04-24T09:54:14;18.00;42.30
21502;DHT22;27639;48.674;9.242;2023-04-24T09:56:45;18.20;42.90
21502;DHT22;27639;48.674;9.242;2023-04-24T09:59:11;18.40;41.10
21502;DHT22;27639;48.674;9.242;2023-04-24T10:01:36;18.50;41.20
21502;DHT22;27639;48.674;9.242;2023-04-24T10:04:03;18.70;41.40
21502;DHT22;27639;48.674;9.242;2023-04-24T10:06:35;18.90;40.70
21502;DHT22;27639;48.674;9.242;2023-04-24T10:09:02;18.90;38.80
21502;DHT22;27639;48.674;9.242;2023-04-24T10:11:29;18.80;39.00
21502;DHT22;27639;48.674;9.242;2023-04-24T10:13:56;18.60;38.70
21502;DHT22;27639;48.674;9.242;2023-04-24T10:16:23;18.50;38.90
21502;DHT22;27639;48.674;9.242;2023-04-24T10:18:49;18.30;38.80
21502;DHT22;27639;48.674;9.242;2023-04-24T10:21:16;18.10;38.40
21502;DHT22;27639;48.674;9.242;2023-04-24T10:23:42;18.10;39.30
21502;DHT22;27639;48.674;9.242;2023-04-24T10:26:12;18.10;39.70
21502;DHT22;27639;48.674;9.242;2023-04-24T10:28:47;18.20;39.60
21502;DHT22;27639;48.674;9.242;2023-04-24T10:31:13;18.30;39.60
21502;DHT22;27639;48.674;9.242;2023-04-24T10:33:41;18.40;39.40
21502;DHT22;27639;48.674;9.242;2023-04-24T10:36:09;18.50;39.30
21502;DHT22;27639;48.674;9.242;2023-04-24T10:38:35;18.70;39.20
21502;DHT22;27639;48.674;9.242;2023-04-24T10:41:09;18.70;38.70
21502;DHT22;27639;48.674;9.242;2023-04-24T10:43:36;18.80;39.30
21502;DHT22;27639;48.674;9.242;2023-04-24T10:46:05;18.80;39.30
21502;DHT22;27639;48.674;9.242;2023-04-24T10:48:32;18.80;39.00
21502;DHT22;27639;48.674;9.242;2023-04-24T10:50:58;18.70;39.00
21502;DHT22;27639;48.674;9.242;2023-04-24T10:53:27;18.70;39.20
21502;DHT22;27639;48.674;9.242;2023-04-24T10:56:05;18.70;39.60
21502;DHT22;27639;48.674;9.242;2023-04-24T11:01:03;18.50;39.10
21502;DHT22;27639;48.674;9.242;2023-04-24T11:03:30;18.60;39.50
21502;DHT22;27639;48.674;9.242;2023-04-24T11:06:05;18.50;39.50
21502;DHT22;27639;48.674;9.242;2023-04-24T11:08:43;18.40;39.00
21502;DHT22;27639;48.674;9.242;2023-04-24T11:11:17;18.20;38.90
21502;DHT22;27639;48.674;9.242;2023-04-24T11:16:24;17.70;39.20
21502;DHT22;27639;48.674;9.242;2023-04-24T11:22:16;17.50;40.20
21502;DHT22;27639;48.674;9.242;2023-04-24T11:24:38;17.50;40.70
21502;DHT22;27639;48.674;9.242;2023-04-24T11:34:52;17.50;41.20
21502;DHT22;27639;48.674;9.242;2023-04-24T11:37:18;17.50;41.10
21502;DHT22;27639;48.674;9.242;2023-04-24T11:39:44;17.40;40.90
21502;DHT22;27639;48.674;9.242;2023-04-24T11:42:09;17.30;40.90
21502;DHT22;27639;48.674;9.242;2023-04-24T11:44:35;17.10;40.50
21502;DHT22;27639;48.674;9.242;2023-04-24T11:47:05;17.10;40.60
21502;DHT22;27639;48.674;9.242;2023-04-24T11:49:32;16.90;40.70
21502;DHT22;27639;48.674;9.242;2023-04-24T11:51:59;16.70;40.60
21502;DHT22;27639;48.674;9.242;2023-04-24T11:54:26;16.60;41.20
21502;DHT22;27639;48.674;9.242;2023-04-24T11:56:51;16.50;41.50
21502;DHT22;27639;48.674;9.242;2023-04-24T11:59:17;16.50;41.80
21502;DHT22;27639;48.674;9.242;2023-04-24T12:01:46;16.50;42.00
21502;DHT22;27639;48.674;9.242;2023-04-24T12:04:13;16.50;42.30
21502;DHT22;27639;48.674;9.242;2023-04-24T12:06:39;16.50;42.40
21502;DHT22;27639;48.674;9.242;2023-04-24T12:09:05;16.50;42.70
21502;DHT22;27639;48.674;9.242;2023-04-24T12:11:30;16.60;43.00
21502;DHT22;27639;48.674;9.242;2023-04-24T12:13:56;16.80;43.20
21502;DHT22;27639;48.674;9.242;2023-04-24T12:16:22;17.00;42.80
21502;DHT22;27639;48.674;9.242;2023-04-24T12:18:50;17.10;42.60
21502;DHT22;27639;48.674;9.242;2023-04-24T12:21:21;17.30;42.50
21502;DHT22;27639;48.674;9.242;2023-04-24T12:23:47;17.40;42.40
21502;DHT22;27639;48.674;9.242;2023-04-24T12:26:17;17.50;42.80
21502;DHT22;27639;48.674;9.242;2023-04-24T12:28:46;17.50;41.80
21502;DHT22;27639;48.674;9.242;2023-04-24T12:31:12;17.40;41.60
21502;DHT22;27639;48.674;9.242;2023-04-24T12:33:38;17.30;41.20
21502;DHT22;27639;48.674;9.242;2023-04-24T12:36:04;17.10;40.90
21502;DHT22;27639;48.674;9.242;2023-04-24T12:38:30;17.10;41.60
21502;DHT22;27639;48.674;9.242;2023-04-24T12:41:04;17.10;41.60
21502;DHT22;27639;48.674;9.242;2023-04-24T12:43:30;17.10;41.80
21502;DHT22;27639;48.674;9.242;2023-04-24T12:45:56;17.00;41.90
21502;DHT22;27639;48.674;9.242;2023-04-24T12:48:22;17.10;42.10
21502;DHT22;27639;48.674;9.242;2023-04-24T12:50:48;17.10;42.00
21502;DHT22;27639;48.674;9.242;2023-04-24T12:53:14;17.10;42.20
21502;DHT22;27639;48.674;9.242;2023-04-24T12:55:41;17.20;42.20
21502;DHT22;27639;48.674;9.242;2023-04-24T12:58:06;17.20;42.60
21502;DHT22;27639;48.674;9.242;2023-04-24T13:00:32;17.20;41.90
21502;DHT22;27639;48.674;9.242;2023-04-24T13:02:58;17.30;41.60
21502;DHT22;27639;48.674;9.242;2023-04-24T13:05:24;17.10;41.30
21502;DHT22;27639;48.674;9.242;2023-04-24T13:07:50;17.00;41.90
21502;DHT22;27639;48.674;9.242;2023-04-24T13:10:16;17.00;42.00
21502;DHT22;27639;48.674;9.242;2023-04-24T13:12:41;16.90;42.20
21502;DHT22;27639;48.674;9.242;2023-04-24T13:15:10;16.90;42.40
21502;DHT22;27639;48.674;9.242;2023-04-24T13:17:36;16.80;42.60
21502;DHT22;27639;48.674;9.242;2023-04-24T13:20:02;16.80;43.00
21502;DHT22;27639;48.674;9.242;2023-04-24T13:22:28;16.80;43.00
21502;DHT22;27639;48.674;9.242;2023-04-24T13:24:53;16.80;43.00
21502;DHT22;27639;48.674;9.242;2023-04-24T13:27:20;16.90;43.20
21502;DHT22;27639;48.674;9.242;2023-04-24T13:29:45;16.90;43.30
21502;DHT22;27639;48.674;9.242;2023-04-24T13:32:11;16.90;43.40
21502;DHT22;27639;48.674;9.242;2023-04-24T13:34:37;16.90;43.30
21502;DHT22;27639;48.674;9.242;2023-04-24T13:37:03;16.90;43.30
21502;DHT22;27639;48.674;9.242;2023-04-24T13:39:29;16.90;43.30
21502;DHT22;27639;48.674;9.242;2023-04-24T13:41:55;17.10;43.50
21502;DHT22;27639;48.674;9.242;2023-04-24T13:44:21;17.10;43.00
21502;DHT22;27639;48.674;9.242;2023-04-24T13:46:49;17.10;42.70
21502;DHT22;27639;48.674;9.242;2023-04-24T13:49:15;17.10;42.70
21502;DHT22;27639;48.674;9.242;2023-04-24T13:51:42;17.00;42.40
21502;DHT22;27639;48.674;9.242;2023-04-24T13:54:07;16.90;42.10
21502;DHT22;27639;48.674;9.242;2023-04-24T13:56:33;16.90;42.30
21502;DHT22;27639;48.674;9.242;2023-04-24T13:58:59;16.80;42.40
21502;DHT22;27639;48.674;9.242;2023-04-24T14:01:24;16.70;42.20
21502;DHT22;27639;48.674;9.242;2023-04-24T14:03:54;16.50;42.20
21502;DHT22;27639;48.674;9.242;2023-04-24T14:06:21;16.40;42.90
21502;DHT22;27639;48.674;9.242;2023-04-24T14:08:47;16.40;43.60
21502;DHT22;27639;48.674;9.242;2023-04-24T14:11:13;16.50;44.00
21502;DHT22;27639;48.674;9.242;2023-04-24T14:13:41;16.50;44.20
21502;DHT22;27639;48.674;9.242;2023-04-24T14:16:06;16.60;43.80
21502;DHT22;27639;48.674;9.242;2023-04-24T14:18:32;16.80;43.70
21502;DHT22;27639;48.674;9.242;2023-04-24T14:20:58;16.90;43.40
21502;DHT22;27639;48.674;9.242;2023-04-24T14:23:24;17.00;43.10
21502;DHT22;27639;48.674;9.242;2023-04-24T14:25:50;16.90;42.80
21502;DHT22;27639;48.674;9.242;2023-04-24T14:28:18;16.90;42.80
21502;DHT22;27639;48.674;9.242;2023-04-24T14:30:44;16.80;42.70
21502;DHT22;27639;48.674;9.242;2023-04-24T14:33:10;16.80;42.70
21502;DHT22;27639;48.674;9.242;2023-04-24T14:35:37;16.70;42.70
21502;DHT22;27639;48.674;9.242;2023-04-24T14:38:02;16.80;42.70
21502;DHT22;27639;48.674;9.242;2023-04-24T14:40:28;16.70;43.00
21502;DHT22;27639;48.674;9.242;2023-04-24T14:42:54;16.50;44.50
21502;DHT22;27639;48.674;9.242;2023-04-24T14:45:19;16.40;45.80
21502;DHT22;27639;48.674;9.242;2023-04-24T14:47:45;16.40;47.10
21502;DHT22;27639;48.674;9.242;2023-04-24T14:50:11;16.40;47.10
21502;DHT22;27639;48.674;9.242;2023-04-24T14:52:38;16.50;47.10
21502;DHT22;27639;48.674;9.242;2023-04-24T14:55:04;16.70;47.40
21502;DHT22;27639;48.674;9.242;2023-04-24T14:57:30;16.80;47.10
21502;DHT22;27639;48.674;9.242;2023-04-24T14:59:55;17.00;46.60
21502;DHT22;27639;48.674;9.242;2023-04-24T15:02:21;17.10;45.80
21502;DHT22;27639;48.674;9.242;2023-04-24T15:04:46;17.20;45.40
21502;DHT22;27639;48.674;9.242;2023-04-24T15:07:12;17.20;45.40
21502;DHT22;27639;48.674;9.242;2023-04-24T15:09:37;17.30;45.50
21502;DHT22;27639;48.674;9.242;2023-04-24T15:12:03;17.50;45.10
21502;DHT22;27639;48.674;9.242;2023-04-24T15:14:29;17.60;44.60
21502;DHT22;27639;48.674;9.242;2023-04-24T15:16:55;17.60;43.60
21502;DHT22;27639;48.674;9.242;2023-04-24T15:19:20;17.50;43.20
21502;DHT22;27639;48.674;9.242;2023-04-24T15:21:46;17.50;43.20
21502;DHT22;27639;48.674;9.242;2023-04-24T15:24:11;17.40;42.70
21502;DHT22;27639;48.674;9.242;2023-04-24T15:26:37;17.40;42.40
21502;DHT22;27639;48.674;9.242;2023-04-24T15:29:02;17.40;42.40
21502;DHT22;27639;48.674;9.242;2023-04-24T15:31:28;17.30;42.30
21502;DHT22;27639;48.674;9.242;2023-04-24T15:33:53;17.30;42.10
21502;DHT22;27639;48.674;9.242;2023-04-24T15:36:20;17.30;42.10
21502;DHT22;27639;48.674;9.242;2023-04-24T15:38:46;17.30;41.90
21502;DHT22;27639;48.674;9.242;2023-04-24T15:41:12;17.30;41.70